MEB weather

Melbourne Essendon Airport
Victoria, Australia

Public forecast

Using degrees Celsius for public forecast. Weather courtesy of forecast.io.

METAR (pilot weather report)

Retrieved 2018/09/21 13:00 UTC (19 minutes ago):

YMEN 211300Z AUTO 16006KT 9999 // NCD 09/08 Q1026

TAF (pilot weather forecast)

Closest forecast is Melbourne International Airport, 4.3 nm (8.0 km) NW. Retrieved 2018/09/21 12:00 UTC (1 hour ago):

TAF YMML 211129Z 2112/2218 VRB05KT 9999 SCT045 FM211400 36008KT 9999 SCT035 BECMG 2200/2202 23012KT 9999 SCT045 FM220600 18010KT 9999 SCT045 FM221200 VRB05KT 9999 SCT040